Nathaniel B. Palmer — WBP3210 — position and weather

sailwx.info

Track history (hours):
 
Tides and Currents Weather Stations Pressure Air Temp Water Temp Dewpoint Dewpoint Depression Visibility Wind Speed Wind Dir Waves Ship Positions

Oceanographic research ship Nathaniel B. Palmer (USA)

Contact: Ethan Norris, ethan.norris.contractor@usap.gov

Detailed information on ship capabilities available from University of Delaware's Ocean Information Center and ARCUS's ALIAS (Arctic Logistics Information and Support) project.

Owner: OFFSHORE SERVICE VESSELS, Cut Off, LA. More information available from US FCC via Universal Licensing System and Coast Guard Vessel Documentation Center.

Last reported at 2020-Jan-19 01:00 UTC. Time now 2020-Jan-19 01:40 UTC.
Position S 53°06' W 070°54'.

Type: Other ship. MMSI: 366610000.

Wind from 040 at 5 knots

Barometer 999.3 mb
Air temperature 12.6 ° C
Water temperature 8.5 ° C

Date/timePositionNaut miles runAvg speedWind from/ knotsBaromVisibWave heightAir tempDewpointWater temp
2020-Jan-19 01:00S 53°06' W 070°54'0 0.0 040 / 5999.3 12.6 8.5
2020-Jan-19 00:00S 53°06' W 070°54'0 0.0 290 / 7999.3 13.4 8.5
2020-Jan-18 23:00S 53°06' W 070°54'0 0.0 290 / 15999.2 13.8 8.5
2020-Jan-18 22:00S 53°06' W 070°54'0 0.0 280 / 16999.4 14.1 8.5
2020-Jan-18 21:00S 53°06' W 070°54'0 0.0 290 / 15999.6 14.1 8.5
2020-Jan-18 20:00S 53°06' W 070°54'0 0.0 290 / 11999.5 15.0 8.5
2020-Jan-18 19:00S 53°06' W 070°54'0 0.0 280 / 10999.7 14.9 8.5
2020-Jan-18 18:00S 53°06' W 070°54'0 0.0 280 / 11999.7 15.0 8.5
2020-Jan-18 17:00S 53°06' W 070°54'0 0.0 280 / 131000.0 15.2 8.5
2020-Jan-18 16:00S 53°06' W 070°54'0 0.0 270 / 151000.1 14.9 8.5
2020-Jan-18 15:00S 53°06' W 070°54'0 0.0 270 / 151000.5 14.2 8.5
2020-Jan-18 14:00S 53°06' W 070°54'0 0.0 270 / 121000.9 13.7 8.5
2020-Jan-18 13:00S 53°06' W 070°54'0 0.0 280 / 81001.6 12.6 8.5
2020-Jan-18 12:00S 53°06' W 070°54'0 0.0 280 / 101002.0 11.9 8.5
2020-Jan-18 11:00S 53°06' W 070°54'0 0.0 270 / 111002.1 11.1 8.5
2020-Jan-18 10:00S 53°06' W 070°54'0 0.0 280 / 121002.1 10.8 8.5
2020-Jan-18 09:00S 53°06' W 070°54'0 0.0 270 / 111002.5 11.1 8.5
2020-Jan-18 08:00S 53°06' W 070°54'0 0.0 270 / 91002.5 11.3 8.5
2020-Jan-18 07:00S 53°06' W 070°54'0 0.0 260 / 241001.4 11.3 8.5
2020-Jan-18 06:00S 53°06' W 070°54'0 0.0 260 / 281001.3 11.0 8.5
2020-Jan-18 05:00S 53°06' W 070°54'0 0.0 260 / 261002.0 10.7 8.5
2020-Jan-18 04:00S 53°06' W 070°54'0 0.0 270 / 321001.5 10.7 8.5
2020-Jan-18 03:00S 53°06' W 070°54'0 0.0 270 / 281001.5 10.5 8.5
2020-Jan-18 02:00S 53°06' W 070°54'0 0.0 270 / 271001.4 10.3 8.5
2020-Jan-18 01:00S 53°06' W 070°54'0 0.0 260 / 231001.5 10.3 8.5
2020-Jan-18 00:00S 53°06' W 070°54'0 0.0 260 / 271000.8 10.7 8.5
2020-Jan-17 23:00S 53°06' W 070°54'0 0.0 270 / 271000.1 11.2 8.5
2020-Jan-17 22:00S 53°06' W 070°54'0 0.0 260 / 26999.9 11.5 8.5
2020-Jan-17 21:00S 53°06' W 070°54'0 0.0 260 / 26999.2 12.0 8.5
2020-Jan-17 20:00S 53°06' W 070°54'0 0.0 270 / 30998.3 12.0 8.5
2020-Jan-17 19:00S 53°06' W 070°54'0 0.0 270 / 34997.6 12.3 8.5
2020-Jan-17 18:00S 53°06' W 070°54'0 0.0 270 / 36996.7 12.3 8.5
2020-Jan-17 17:00S 53°06' W 070°54'0 0.0 270 / 36995.8 12.4 8.5
2020-Jan-17 16:00S 53°06' W 070°54'0 0.0 270 / 37995.6 13.0 8.5
2020-Jan-17 15:00S 53°06' W 070°54'0 0.0 280 / 35994.8 13.6 8.5
2020-Jan-17 14:00S 53°06' W 070°54'0 0.0 280 / 30994.9 13.4 8.5
2020-Jan-17 13:00S 53°06' W 070°54'0 0.0 280 / 17995.9 13.4 8.5
2020-Jan-17 12:00S 53°06' W 070°54'0 0.0 330 / 4997.1 12.9 8.5
2020-Jan-17 11:00S 53°06' W 070°54'0 0.0 310 / 5998.0 12.5 8.5
2020-Jan-17 10:00S 53°06' W 070°54'0 0.0 020 / 4998.4 12.1 8.5
2020-Jan-17 09:00S 53°06' W 070°54'0 0.0 040 / 5998.9 11.6 8.5
2020-Jan-17 08:00S 53°06' W 070°54'0 0.0 020 / 9999.6 12.4 8.5
2020-Jan-17 07:00S 53°06' W 070°54'0 0.0 340 / 61001.0 12.8 8.5
2020-Jan-17 06:00S 53°06' W 070°54'0 0.0 310 / 61001.6 13.4 8.5
2020-Jan-17 05:00S 53°06' W 070°54'0 0.0 290 / 161002.5 13.7 8.5
2020-Jan-17 04:00S 53°06' W 070°54'0 0.0 310 / 91003.4 13.3 8.5
2020-Jan-17 03:00S 53°06' W 070°54'0 0.0 300 / 101004.0 13.0 8.5
2020-Jan-17 02:00S 53°06' W 070°54'0 0.0 280 / 101004.4 12.9 8.5
2020-Jan-17 01:00S 53°06' W 070°54'0 0.0 290 / 131004.7 13.1 8.5
2020-Jan-17 00:00S 53°06' W 070°54'0 0.0 300 / 111005.1 13.7 8.5
2020-Jan-16 23:00S 53°06' W 070°54'0 0.0 300 / 131005.2 14.2 8.5
2020-Jan-16 22:00S 53°06' W 070°54'0 0.0 290 / 131005.2 14.4 8.5
2020-Jan-16 21:00S 53°06' W 070°54'0 0.0 310 / 151005.1 13.7 8.5
2020-Jan-16 20:00S 53°06' W 070°54'0 0.0 300 / 161005.2 13.4 8.5
2020-Jan-16 19:00S 53°06' W 070°54'0 0.0 290 / 131005.8 13.2 8.5
2020-Jan-16 18:00S 53°06' W 070°54'0 0.0 310 / 111006.5 12.5 8.5
2020-Jan-16 17:00S 53°06' W 070°54'0 0.0 310 / 131007.4 11.9 8.5
2020-Jan-16 16:00S 53°06' W 070°54'0 0.0 290 / 131007.9 12.4 8.5
2020-Jan-16 15:00S 53°06' W 070°54'0 0.0 290 / 141008.6 11.6 8.5
2020-Jan-16 14:00S 53°06' W 070°54'0 0.0 280 / 151009.0 10.9 8.5
2020-Jan-16 13:00S 53°06' W 070°54'0 0.0 270 / 151009.4 10.8 8.5
2020-Jan-16 12:00S 53°06' W 070°54'0 0.0 260 / 91010.2 10.0 8.5
2020-Jan-16 11:00S 53°06' W 070°54'0 0.0 280 / 81010.5 9.5 8.5
2020-Jan-16 10:00S 53°06' W 070°54'0 0.0 260 / 81010.7 8.7 8.5
2020-Jan-16 09:00S 53°06' W 070°54'0 0.0 250 / 121010.5 8.2 8.5
2020-Jan-16 08:00S 53°06' W 070°54'0 0.0 250 / 61010.8 7.5 8.5
2020-Jan-16 07:00S 53°06' W 070°54'0 0.0 230 / 51011.0 7.4 8.5
2020-Jan-16 06:00S 53°06' W 070°54'0 0.0 230 / 51011.0 7.3 8.5
2020-Jan-16 05:00S 53°06' W 070°54'0 0.0 230 / 111010.5 6.9 8.5
2020-Jan-16 04:00S 53°06' W 070°54'0 0.0 210 / 121010.2 7.3 8.5
2020-Jan-16 03:00S 53°06' W 070°54'0 0.0 220 / 101009.8 7.1 8.5
2020-Jan-16 02:00S 53°06' W 070°54'0 0.0 240 / 121008.6 6.6 8.5
2020-Jan-16 01:00S 53°06' W 070°54'0 0.0 240 / 141007.6 6.9 8.5
2020-Jan-16 00:00S 53°06' W 070°54'0 0.0 250 / 131007.1 6.4 8.5
2020-Jan-15 23:00S 53°06' W 070°54'0 0.0 250 / 121006.5 6.2 8.5
2020-Jan-15 22:00S 53°06' W 070°54'0 0.0 260 / 191005.3 6.6 8.5
2020-Jan-15 21:00S 53°06' W 070°54'0 0.0 260 / 241003.5 7.6 8.5
2020-Jan-15 20:00S 53°06' W 070°54'0 0.0 250 / 231002.3 8.5 8.5
2020-Jan-15 19:00S 53°06' W 070°54'0 0.0 240 / 201002.0 10.1 8.5
2020-Jan-15 18:00S 53°06' W 070°54'0 0.0 250 / 211001.4 10.7 8.5
2020-Jan-15 17:00S 53°06' W 070°54'0 0.0 250 / 211000.9 10.4 8.5
2020-Jan-15 16:00S 53°06' W 070°54'0 0.0 250 / 221000.3 10.2 8.5
2020-Jan-15 15:00S 53°06' W 070°54'0 0.0 260 / 22999.9 9.6 8.5
2020-Jan-15 14:00S 53°06' W 070°54'0 0.0 260 / 23999.3 9.5 8.5
2020-Jan-15 13:00S 53°06' W 070°54'0 0.0 260 / 20998.8 9.3 8.5
2020-Jan-15 12:00S 53°06' W 070°54'0 0.0 250 / 13998.8 8.8 8.5
2020-Jan-15 11:00S 53°06' W 070°54'0 0.0 260 / 9998.6 8.1 8.5
2020-Jan-15 10:00S 53°06' W 070°54'0 0.0 270 / 11998.1 6.9 8.5
2020-Jan-15 09:00S 53°06' W 070°54'0 0.0 270 / 7997.7 6.5 8.5
2020-Jan-15 08:00S 53°06' W 070°54'0 0.0 280 / 11997.3 6.4 8.5
2020-Jan-15 07:00S 53°06' W 070°54'0 0.0 270 / 13997.5 6.4 8.5
2020-Jan-15 06:00S 53°06' W 070°54'0 0.0 270 / 12997.5 6.6 8.5
2020-Jan-15 05:00S 53°06' W 070°54'0 0.0 260 / 13997.5 6.8 8.5
2020-Jan-15 04:00S 53°06' W 070°54'0 0.0 260 / 10997.4 6.9 8.5
2020-Jan-15 03:00S 53°06' W 070°54'0 0.0 250 / 8997.1 7.0 8.5
2020-Jan-15 02:00S 53°06' W 070°54'0 0.0 250 / 6996.6 7.4 8.5
2020-Jan-15 01:00S 53°06' W 070°54'0 0.0 240 / 8995.9 7.8 8.5
2020-Jan-15 00:00S 53°06' W 070°54'0 0.0 240 / 12995.1 8.7 8.5
2020-Jan-14 23:00S 53°06' W 070°54'0 0.0 230 / 16994.0 10.0 8.5
2020-Jan-14 22:00S 53°06' W 070°54'0 0.0 220 / 17993.1 10.4 8.5
2020-Jan-14 21:00S 53°06' W 070°54'0 0.0 220 / 15992.4 11.3 8.5
2020-Jan-14 20:00S 53°06' W 070°54'0 0.0 120 / 3992.2 10.0 8.5
2020-Jan-14 19:00S 53°06' W 070°54'0 0.0 150 / 9992.0 9.3 8.5
2020-Jan-14 18:00S 53°06' W 070°54'0 0.0 140 / 11991.7 10.1 8.5
2020-Jan-14 17:00S 53°06' W 070°54'0 0.0 270 / 12991.9 11.5 8.5
2020-Jan-14 16:00S 53°06' W 070°54'0 0.0 240 / 8992.5 12.2 8.5
2020-Jan-14 15:00S 53°06' W 070°54'0 0.0 250 / 8992.9 11.4 8.5
2020-Jan-14 14:00S 53°06' W 070°54'0 0.0 260 / 9993.4 10.6 8.5
2020-Jan-14 13:00S 53°06' W 070°54'0 0.0 260 / 8994.0 10.0 8.5
2020-Jan-14 12:00S 53°06' W 070°54'0 0.0 270 / 9994.3 9.1 8.5
2020-Jan-14 11:00S 53°06' W 070°54'0 0.0 260 / 8994.5 8.9 8.5
2020-Jan-14 10:00S 53°06' W 070°54'0 0.0 260 / 4994.4 8.8 8.5
2020-Jan-14 09:00S 53°06' W 070°54'0 0.0 240 / 1994.4 9.0 8.5
2020-Jan-14 08:00S 53°06' W 070°54'0 0.0 240 / 1994.4 8.9 8.5
2020-Jan-14 07:00S 53°06' W 070°54'0 0.0 210 / 3995.0 9.2 8.5
2020-Jan-14 06:00S 53°06' W 070°54'0 0.0 210 / 5995.6 9.4 8.5
2020-Jan-14 05:00S 53°06' W 070°54'0 0.0 210 / 5996.1 9.6 8.5
2020-Jan-14 04:00S 53°06' W 070°54'0 0.0 210 / 7996.5 9.8 8.5
2020-Jan-14 03:00S 53°06' W 070°54'0 0.0 190 / 7996.7 10.5 8.5
2020-Jan-14 02:00S 53°06' W 070°54'0 0.0 140 / 3996.8 10.6 8.5
2020-Jan-14 01:00S 53°06' W 070°54'0 0.0 110 / 1997.0 10.8 8.5
2020-Jan-14 00:00S 53°06' W 070°54'0 0.0 220 / 8997.2 13.6 8.5
2020-Jan-13 23:00S 53°06' W 070°54'0 0.0 270 / 13997.1 16.3 8.5
2020-Jan-13 22:00S 53°06' W 070°54'0 0.0 280 / 14997.2 16.7 8.5
2020-Jan-13 21:00S 53°06' W 070°54'0 0.0 270 / 13997.0 16.9 8.5
2020-Jan-13 20:00S 53°06' W 070°54'0 0.0 270 / 8997.1 16.7 8.5
2020-Jan-13 19:00S 53°06' W 070°54'0 0.0 270 / 10997.4 16.2 8.5
2020-Jan-13 18:00S 53°06' W 070°54'0 0.0 997.1 15.1 8.5
2020-Jan-13 17:00S 53°06' W 070°54'0 0.0 040 / 13997.4 12.7 8.5
2020-Jan-13 16:00S 53°06' W 070°54'0 0.0 030 / 13998.6 12.4 8.5
2020-Jan-13 15:00S 53°06' W 070°54'0 0.0 030 / 11999.7 12.3 8.5
2020-Jan-13 14:00S 53°06' W 070°54'0 0.0 030 / 101000.7 12.5 8.5
2020-Jan-13 13:00S 53°06' W 070°54'0 0.0 030 / 131001.4 12.0 8.5
2020-Jan-13 12:00S 53°06' W 070°54'0 0.0 020 / 51002.2 13.4 8.5
2020-Jan-13 11:00S 53°06' W 070°54'0 0.0 300 / 91002.4 13.6 8.5
2020-Jan-13 10:00S 53°06' W 070°54'0 0.0 290 / 151002.3 13.5 8.5
2020-Jan-13 09:00S 53°06' W 070°54'0 0.0 330 / 111003.0 13.2 8.5
2020-Jan-13 08:00S 53°06' W 070°54'0 0.0 010 / 51004.1 13.2 8.5
2020-Jan-13 07:00S 53°06' W 070°54'0 0.0 320 / 101004.8 13.2 8.5
2020-Jan-13 06:00S 53°06' W 070°54'0 0.0 320 / 81005.2 13.4 8.5
2020-Jan-13 05:00S 53°06' W 070°54'0 0.0 300 / 91005.8 13.8 8.5
2020-Jan-13 04:00S 53°06' W 070°54'0 0.0 330 / 91006.1 13.7 8.5
2020-Jan-13 03:00S 53°06' W 070°54'0 0.0 320 / 91006.0 13.8 8.5
2020-Jan-13 02:00S 53°06' W 070°54'0 0.0 1005.9 14.0 8.5
2020-Jan-13 01:00S 53°06' W 070°54'0 0.0 330 / 101005.7 14.6 8.5
2020-Jan-13 00:00S 53°06' W 070°54'4 3.6 300 / 161005.5 15.2 8.5
2020-Jan-12 23:00S 53°06' W 070°48'0 0.0 290 / 161005.6 15.5 8.5
2020-Jan-12 22:00S 53°06' W 070°48'0 0.0 300 / 141005.6 15.8 8.5
2020-Jan-12 21:00S 53°06' W 070°48'0 0.0 320 / 121005.5 15.5 8.5
2020-Jan-12 20:00S 53°06' W 070°48'0 0.0 320 / 131006.2 15.2 8.5
2020-Jan-12 19:00S 53°06' W 070°48'0 0.0 320 / 131006.7 14.5 8.5
2020-Jan-12 18:00S 53°06' W 070°48'0 0.0 310 / 121007.4 14.0 8.5
2020-Jan-12 17:00S 53°06' W 070°48'0 0.0 280 / 121007.9 13.7 8.5
2020-Jan-12 16:00S 53°06' W 070°48'0 0.0 280 / 161007.9 14.2 8.5
2020-Jan-12 15:00S 53°06' W 070°48'0 0.0 280 / 201007.5 15.2 8.5
2020-Jan-12 14:00S 53°06' W 070°48'0 0.0 280 / 171007.3 15.2 8.5
2020-Jan-12 13:00S 53°06' W 070°48'0 0.0 270 / 111007.4 14.3 8.5
2020-Jan-12 11:00S 53°06' W 070°48'0 0.0 280 / 141007.0 12.5 8.5
2020-Jan-12 10:00S 53°06' W 070°48'0 0.0 270 / 181006.4 12.5 8.5
2020-Jan-12 09:00S 53°06' W 070°48'4 3.6 290 / 101005.5 12.9 8.5
2020-Jan-12 08:00S 53°06' W 070°54'0 0.0 290 / 61005.0 12.9 8.5
2020-Jan-12 07:00S 53°06' W 070°54'0 0.0 280 / 111004.8 12.9 8.5
2020-Jan-12 06:00S 53°06' W 070°54'0 0.0 280 / 141004.5 12.8 8.5
2020-Jan-12 05:00S 53°06' W 070°54'0 0.0 310 / 111004.2 12.5 8.5
2020-Jan-12 04:00S 53°06' W 070°54'0 0.0 330 / 101003.9 12.4 8.5
2020-Jan-12 03:00S 53°06' W 070°54'0 0.0 350 / 71003.7 12.2 8.5
2020-Jan-12 02:00S 53°06' W 070°54'0 0.0 300 / 41003.5 12.4 8.5
2020-Jan-12 01:00S 53°06' W 070°54'0 0.0 300 / 61002.9 13.0 8.5
2020-Jan-12 00:00S 53°06' W 070°54'0 0.0 320 / 111002.7 13.1 8.5
2020-Jan-11 23:00S 53°06' W 070°54'0 0.0 330 / 101003.0 12.8 8.5
2020-Jan-11 22:00S 53°06' W 070°54'0 0.0 350 / 81003.0 12.2 8.5
2020-Jan-11 21:00S 53°06' W 070°54'0 0.0 340 / 71003.7 12.1 8.5
2020-Jan-11 20:00S 53°06' W 070°54'0 0.0 300 / 71004.0 12.3 8.5
2020-Jan-11 19:00S 53°06' W 070°54'0 0.0 290 / 91004.0 13.0 8.5
2020-Jan-11 18:00S 53°06' W 070°54'0 0.0 280 / 141004.1 13.4 8.5
2020-Jan-11 17:00S 53°06' W 070°54'0 0.0 260 / 151004.0 13.2 8.5
2020-Jan-11 16:00S 53°06' W 070°54'0 0.0 270 / 181003.7 13.2 8.5
2020-Jan-11 15:00S 53°06' W 070°54'0 0.0 270 / 171003.3 13.1 8.5
2020-Jan-11 14:00S 53°06' W 070°54'0 0.0 270 / 151003.2 12.6 8.5
2020-Jan-11 13:00S 53°06' W 070°54'0 0.0 280 / 121003.2 11.7 8.5
2020-Jan-11 12:00S 53°06' W 070°54'0 0.0 270 / 101002.9 11.3 8.5
2020-Jan-11 11:00S 53°06' W 070°54'0 0.0 270 / 51002.3 11.6 8.5
2020-Jan-11 10:00S 53°06' W 070°54'0 0.0 300 / 51001.7 10.1 8.5
2020-Jan-11 09:00S 53°06' W 070°54'0 0.0 270 / 71000.8 9.4 8.5
2020-Jan-11 08:00S 53°06' W 070°54'0 0.0 250 / 8999.6 9.8 8.5
2020-Jan-11 07:00S 53°06' W 070°54'0 0.0 250 / 10998.6 10.0 8.5
2020-Jan-11 06:00S 53°06' W 070°54'0 0.0 240 / 11997.9 9.9 8.5
2020-Jan-11 05:00S 53°06' W 070°54'0 0.0 240 / 10997.4 9.8 8.5
2020-Jan-11 04:00S 53°06' W 070°54'0 0.0 260 / 12996.7 10.0 8.5
2020-Jan-11 03:00S 53°06' W 070°54'0 0.0 260 / 8996.1 10.2 8.5
2020-Jan-11 02:00S 53°06' W 070°54'0 0.0 250 / 8995.2 10.4 8.5
2020-Jan-11 01:00S 53°06' W 070°54'0 0.0 260 / 9994.2 10.4 8.5
2020-Jan-11 00:00S 53°06' W 070°54'0 0.0 260 / 9993.5 10.7 8.5
2020-Jan-10 23:00S 53°06' W 070°54'0 0.0 270 / 5992.9 10.5 8.5
2020-Jan-10 22:00S 53°06' W 070°54'0 0.0 250 / 6992.6 10.0 8.5
2020-Jan-10 21:00S 53°06' W 070°54'0 0.0 290 / 13991.8 10.7 8.5
2020-Jan-10 20:00S 53°06' W 070°54'0 0.0 330 / 10991.3 11.0 8.5
2020-Jan-10 19:00S 53°06' W 070°54'0 0.0 350 / 9991.4 10.3 8.5
2020-Jan-10 18:00S 53°06' W 070°54'0 0.0 360 / 8991.9 10.4 8.5
2020-Jan-10 17:00S 53°06' W 070°54'0 0.0 350 / 9992.1 10.5 8.5
2020-Jan-10 16:00S 53°06' W 070°54'0 0.0 340 / 9992.4 11.0 8.5
2020-Jan-10 15:00S 53°06' W 070°54'0 0.0 340 / 9992.7 10.6 8.5
2020-Jan-10 14:00S 53°06' W 070°54'0 0.0 993.2 9.7 8.5
2020-Jan-10 13:00S 53°06' W 070°54'0 0.0 010 / 6993.8 9.3 8.5
2020-Jan-10 12:00S 53°06' W 070°54'0 0.0 030 / 6994.5 8.3 8.5
2020-Jan-10 11:00S 53°06' W 070°54'0 0.0 040 / 7995.2 7.6 8.5
2020-Jan-10 10:00S 53°06' W 070°54'0 0.0 040 / 8995.6 7.7 8.5
2020-Jan-10 09:00S 53°06' W 070°54'0 0.0 030 / 7995.9 7.9 8.5
2020-Jan-10 08:00S 53°06' W 070°54'0 0.0 360 / 3996.3 8.0 8.5
2020-Jan-10 07:00S 53°06' W 070°54'0 0.0 010 / 4996.9 7.1 8.5
2020-Jan-10 06:00S 53°06' W 070°54'0 0.0 340 / 2997.6 7.2 8.5
2020-Jan-10 05:00S 53°06' W 070°54'0 0.0 240 / 5997.9 7.2 8.5
2020-Jan-10 04:00S 53°06' W 070°54'0 0.0 220 / 9998.0 7.4 8.5
2020-Jan-10 03:00S 53°06' W 070°54'0 0.0 240 / 15997.6 7.5 8.5
2020-Jan-10 02:00S 53°06' W 070°54'0 0.0 240 / 11998.2 7.9 8.5
2020-Jan-10 01:00S 53°06' W 070°54'0 0.0 240 / 11997.7 8.3 8.5
2020-Jan-10 00:00S 53°06' W 070°54'0 0.0 250 / 13997.3 8.3 8.5
2020-Jan-09 23:00S 53°06' W 070°54'0 0.0 240 / 11996.8 8.6 8.5
2020-Jan-09 22:00S 53°06' W 070°54'0 0.0 220 / 16996.4 8.1 8.5
2020-Jan-09 21:00S 53°06' W 070°54'0 0.0 230 / 13995.9 7.8 8.5
2020-Jan-09 20:00S 53°06' W 070°54'0 0.0 220 / 15995.6 8.0 8.5
2020-Jan-09 19:00S 53°06' W 070°54'0 0.0 230 / 14994.9 8.1 8.5
2020-Jan-09 18:00S 53°06' W 070°54'0 0.0 230 / 17994.0 8.2 8.5
2020-Jan-09 17:00S 53°06' W 070°54'0 0.0 240 / 19993.3 9.1 8.5
2020-Jan-09 16:00S 53°06' W 070°54'0 0.0 240 / 19992.9 8.9 8.5
2020-Jan-09 15:00S 53°06' W 070°54'0 0.0 250 / 17992.7 8.4 8.5
2020-Jan-09 14:00S 53°06' W 070°54'0 0.0 250 / 16992.1 8.0 8.5
2020-Jan-09 13:00S 53°06' W 070°54'0 0.0 250 / 14992.0 7.4 8.5
2020-Jan-09 12:00S 53°06' W 070°54'0 0.0 240 / 14991.6 7.3 8.5
2020-Jan-09 11:00S 53°06' W 070°54'0 0.0 250 / 13991.3 7.0 8.5
2020-Jan-09 10:00S 53°06' W 070°54'0 0.0 260 / 14990.8 6.9 8.5
2020-Jan-09 09:00S 53°06' W 070°54'0 0.0 260 / 17989.8 6.9 8.5
2020-Jan-09 08:00S 53°06' W 070°54'0 0.0 260 / 21988.6 7.1 8.5
2020-Jan-09 07:00S 53°06' W 070°54'0 0.0 260 / 19988.3 7.1 8.5
2020-Jan-09 06:00S 53°06' W 070°54'0 0.0 260 / 16988.3 7.0 8.5
2020-Jan-09 05:00S 53°06' W 070°54'0 0.0 260 / 10988.5 7.1 8.5
2020-Jan-09 04:00S 53°06' W 070°54'0 0.0 250 / 7988.2 7.3 8.5
2020-Jan-09 03:00S 53°06' W 070°54'0 0.0 260 / 12987.6 7.7 8.5
2020-Jan-09 02:00S 53°06' W 070°54'0 0.0 240 / 11986.9 8.5 8.5
2020-Jan-09 01:00S 53°06' W 070°54'   240 / 11986.1 9.8 8.5
Track history (hours):
 
Tides and Currents Weather Stations Pressure Air Temp Water Temp Dewpoint Dewpoint Depression Visibility Wind Speed Wind Dir Waves Ship Positions

Oceanographic research ship Nathaniel B. Palmer (USA)

Contact: Ethan Norris, ethan.norris.contractor@usap.gov

Detailed information on ship capabilities available from University of Delaware's Ocean Information Center and ARCUS's ALIAS (Arctic Logistics Information and Support) project.

Owner: OFFSHORE SERVICE VESSELS, Cut Off, LA. More information available from US FCC via Universal Licensing System and Coast Guard Vessel Documentation Center.

Last reported at 2020-Jan-19 01:00 UTC. Time now 2020-Jan-19 01:40 UTC.
Position S 53°06' W 070°54'.

Type: Other ship. MMSI: 366610000.

Wind from 040 at 5 knots

Barometer 999.3 mb
Air temperature 12.6 ° C
Water temperature 8.5 ° C

Date/timePositionNaut miles runAvg speedWind from/ knotsBaromVisibWave heightAir tempDewpointWater temp
2020-Jan-19 01:00S 53°06' W 070°54'0 0.0 040 / 5999.3 12.6 8.5
2020-Jan-19 00:00S 53°06' W 070°54'0 0.0 290 / 7999.3 13.4 8.5
2020-Jan-18 23:00S 53°06' W 070°54'0 0.0 290 / 15999.2 13.8 8.5
2020-Jan-18 22:00S 53°06' W 070°54'0 0.0 280 / 16999.4 14.1 8.5
2020-Jan-18 21:00S 53°06' W 070°54'0 0.0 290 / 15999.6 14.1 8.5
2020-Jan-18 20:00S 53°06' W 070°54'0 0.0 290 / 11999.5 15.0 8.5
2020-Jan-18 19:00S 53°06' W 070°54'0 0.0 280 / 10999.7 14.9 8.5
2020-Jan-18 18:00S 53°06' W 070°54'0 0.0 280 / 11999.7 15.0 8.5
2020-Jan-18 17:00S 53°06' W 070°54'0 0.0 280 / 131000.0 15.2 8.5
2020-Jan-18 16:00S 53°06' W 070°54'0 0.0 270 / 151000.1 14.9 8.5
2020-Jan-18 15:00S 53°06' W 070°54'0 0.0 270 / 151000.5 14.2 8.5
2020-Jan-18 14:00S 53°06' W 070°54'0 0.0 270 / 121000.9 13.7 8.5
2020-Jan-18 13:00S 53°06' W 070°54'0 0.0 280 / 81001.6 12.6 8.5
2020-Jan-18 12:00S 53°06' W 070°54'0 0.0 280 / 101002.0 11.9 8.5
2020-Jan-18 11:00S 53°06' W 070°54'0 0.0 270 / 111002.1 11.1 8.5
2020-Jan-18 10:00S 53°06' W 070°54'0 0.0 280 / 121002.1 10.8 8.5
2020-Jan-18 09:00S 53°06' W 070°54'0 0.0 270 / 111002.5 11.1 8.5
2020-Jan-18 08:00S 53°06' W 070°54'0 0.0 270 / 91002.5 11.3 8.5
2020-Jan-18 07:00S 53°06' W 070°54'0 0.0 260 / 241001.4 11.3 8.5
2020-Jan-18 06:00S 53°06' W 070°54'0 0.0 260 / 281001.3 11.0 8.5
2020-Jan-18 05:00S 53°06' W 070°54'0 0.0 260 / 261002.0 10.7 8.5
2020-Jan-18 04:00S 53°06' W 070°54'0 0.0 270 / 321001.5 10.7 8.5
2020-Jan-18 03:00S 53°06' W 070°54'0 0.0 270 / 281001.5 10.5 8.5
2020-Jan-18 02:00S 53°06' W 070°54'0 0.0 270 / 271001.4 10.3 8.5
2020-Jan-18 01:00S 53°06' W 070°54'0 0.0 260 / 231001.5 10.3 8.5
2020-Jan-18 00:00S 53°06' W 070°54'0 0.0 260 / 271000.8 10.7 8.5
2020-Jan-17 23:00S 53°06' W 070°54'0 0.0 270 / 271000.1 11.2 8.5
2020-Jan-17 22:00S 53°06' W 070°54'0 0.0 260 / 26999.9 11.5 8.5
2020-Jan-17 21:00S 53°06' W 070°54'0 0.0 260 / 26999.2 12.0 8.5
2020-Jan-17 20:00S 53°06' W 070°54'0 0.0 270 / 30998.3 12.0 8.5
2020-Jan-17 19:00S 53°06' W 070°54'0 0.0 270 / 34997.6 12.3 8.5
2020-Jan-17 18:00S 53°06' W 070°54'0 0.0 270 / 36996.7 12.3 8.5
2020-Jan-17 17:00S 53°06' W 070°54'0 0.0 270 / 36995.8 12.4 8.5
2020-Jan-17 16:00S 53°06' W 070°54'0 0.0 270 / 37995.6 13.0 8.5
2020-Jan-17 15:00S 53°06' W 070°54'0 0.0 280 / 35994.8 13.6 8.5
2020-Jan-17 14:00S 53°06' W 070°54'0 0.0 280 / 30994.9 13.4 8.5
2020-Jan-17 13:00S 53°06' W 070°54'0 0.0 280 / 17995.9 13.4 8.5
2020-Jan-17 12:00S 53°06' W 070°54'0 0.0 330 / 4997.1 12.9 8.5
2020-Jan-17 11:00S 53°06' W 070°54'0 0.0 310 / 5998.0 12.5 8.5
2020-Jan-17 10:00S 53°06' W 070°54'0 0.0 020 / 4998.4 12.1 8.5
2020-Jan-17 09:00S 53°06' W 070°54'0 0.0 040 / 5998.9 11.6 8.5
2020-Jan-17 08:00S 53°06' W 070°54'0 0.0 020 / 9999.6 12.4 8.5
2020-Jan-17 07:00S 53°06' W 070°54'0 0.0 340 / 61001.0 12.8 8.5
2020-Jan-17 06:00S 53°06' W 070°54'0 0.0 310 / 61001.6 13.4 8.5
2020-Jan-17 05:00S 53°06' W 070°54'0 0.0 290 / 161002.5 13.7 8.5
2020-Jan-17 04:00S 53°06' W 070°54'0 0.0 310 / 91003.4 13.3 8.5
2020-Jan-17 03:00S 53°06' W 070°54'0 0.0 300 / 101004.0 13.0 8.5
2020-Jan-17 02:00S 53°06' W 070°54'0 0.0 280 / 101004.4 12.9 8.5
2020-Jan-17 01:00S 53°06' W 070°54'0 0.0 290 / 131004.7 13.1 8.5
2020-Jan-17 00:00S 53°06' W 070°54'0 0.0 300 / 111005.1 13.7 8.5
2020-Jan-16 23:00S 53°06' W 070°54'0 0.0 300 / 131005.2 14.2 8.5
2020-Jan-16 22:00S 53°06' W 070°54'0 0.0 290 / 131005.2 14.4 8.5
2020-Jan-16 21:00S 53°06' W 070°54'0 0.0 310 / 151005.1 13.7 8.5
2020-Jan-16 20:00S 53°06' W 070°54'0 0.0 300 / 161005.2 13.4 8.5
2020-Jan-16 19:00S 53°06' W 070°54'0 0.0 290 / 131005.8 13.2 8.5
2020-Jan-16 18:00S 53°06' W 070°54'0 0.0 310 / 111006.5 12.5 8.5
2020-Jan-16 17:00S 53°06' W 070°54'0 0.0 310 / 131007.4 11.9 8.5
2020-Jan-16 16:00S 53°06' W 070°54'0 0.0 290 / 131007.9 12.4 8.5
2020-Jan-16 15:00S 53°06' W 070°54'0 0.0 290 / 141008.6 11.6 8.5
2020-Jan-16 14:00S 53°06' W 070°54'0 0.0 280 / 151009.0 10.9 8.5
2020-Jan-16 13:00S 53°06' W 070°54'0 0.0 270 / 151009.4 10.8 8.5
2020-Jan-16 12:00S 53°06' W 070°54'0 0.0 260 / 91010.2 10.0 8.5
2020-Jan-16 11:00S 53°06' W 070°54'0 0.0 280 / 81010.5 9.5 8.5
2020-Jan-16 10:00S 53°06' W 070°54'0 0.0 260 / 81010.7 8.7 8.5
2020-Jan-16 09:00S 53°06' W 070°54'0 0.0 250 / 121010.5 8.2 8.5
2020-Jan-16 08:00S 53°06' W 070°54'0 0.0 250 / 61010.8 7.5 8.5
2020-Jan-16 07:00S 53°06' W 070°54'0 0.0 230 / 51011.0 7.4 8.5
2020-Jan-16 06:00S 53°06' W 070°54'0 0.0 230 / 51011.0 7.3 8.5
2020-Jan-16 05:00S 53°06' W 070°54'0 0.0 230 / 111010.5 6.9 8.5
2020-Jan-16 04:00S 53°06' W 070°54'0 0.0 210 / 121010.2 7.3 8.5
2020-Jan-16 03:00S 53°06' W 070°54'0 0.0 220 / 101009.8 7.1 8.5
2020-Jan-16 02:00S 53°06' W 070°54'0 0.0 240 / 121008.6 6.6 8.5
2020-Jan-16 01:00S 53°06' W 070°54'0 0.0 240 / 141007.6 6.9 8.5
2020-Jan-16 00:00S 53°06' W 070°54'0 0.0 250 / 131007.1 6.4 8.5
2020-Jan-15 23:00S 53°06' W 070°54'0 0.0 250 / 121006.5 6.2 8.5
2020-Jan-15 22:00S 53°06' W 070°54'0 0.0 260 / 191005.3 6.6 8.5
2020-Jan-15 21:00S 53°06' W 070°54'0 0.0 260 / 241003.5 7.6 8.5
2020-Jan-15 20:00S 53°06' W 070°54'0 0.0 250 / 231002.3 8.5 8.5
2020-Jan-15 19:00S 53°06' W 070°54'0 0.0 240 / 201002.0 10.1 8.5
2020-Jan-15 18:00S 53°06' W 070°54'0 0.0 250 / 211001.4 10.7 8.5
2020-Jan-15 17:00S 53°06' W 070°54'0 0.0 250 / 211000.9 10.4 8.5
2020-Jan-15 16:00S 53°06' W 070°54'0 0.0 250 / 221000.3 10.2 8.5
2020-Jan-15 15:00S 53°06' W 070°54'0 0.0 260 / 22999.9 9.6 8.5
2020-Jan-15 14:00S 53°06' W 070°54'0 0.0 260 / 23999.3 9.5 8.5
2020-Jan-15 13:00S 53°06' W 070°54'0 0.0 260 / 20998.8 9.3 8.5
2020-Jan-15 12:00S 53°06' W 070°54'0 0.0 250 / 13998.8 8.8 8.5
2020-Jan-15 11:00S 53°06' W 070°54'0 0.0 260 / 9998.6 8.1 8.5
2020-Jan-15 10:00S 53°06' W 070°54'0 0.0 270 / 11998.1 6.9 8.5
2020-Jan-15 09:00S 53°06' W 070°54'0 0.0 270 / 7997.7 6.5 8.5
2020-Jan-15 08:00S 53°06' W 070°54'0 0.0 280 / 11997.3 6.4 8.5
2020-Jan-15 07:00S 53°06' W 070°54'0 0.0 270 / 13997.5 6.4 8.5
2020-Jan-15 06:00S 53°06' W 070°54'0 0.0 270 / 12997.5 6.6 8.5
2020-Jan-15 05:00S 53°06' W 070°54'0 0.0 260 / 13997.5 6.8 8.5
2020-Jan-15 04:00S 53°06' W 070°54'0 0.0 260 / 10997.4 6.9 8.5
2020-Jan-15 03:00S 53°06' W 070°54'0 0.0 250 / 8997.1 7.0 8.5
2020-Jan-15 02:00S 53°06' W 070°54'0 0.0 250 / 6996.6 7.4 8.5
2020-Jan-15 01:00S 53°06' W 070°54'0 0.0 240 / 8995.9 7.8 8.5
2020-Jan-15 00:00S 53°06' W 070°54'0 0.0 240 / 12995.1 8.7 8.5
2020-Jan-14 23:00S 53°06' W 070°54'0 0.0 230 / 16994.0 10.0 8.5
2020-Jan-14 22:00S 53°06' W 070°54'0 0.0 220 / 17993.1 10.4 8.5
2020-Jan-14 21:00S 53°06' W 070°54'0 0.0 220 / 15992.4 11.3 8.5
2020-Jan-14 20:00S 53°06' W 070°54'0 0.0 120 / 3992.2 10.0 8.5
2020-Jan-14 19:00S 53°06' W 070°54'0 0.0 150 / 9992.0 9.3 8.5
2020-Jan-14 18:00S 53°06' W 070°54'0 0.0 140 / 11991.7 10.1 8.5
2020-Jan-14 17:00S 53°06' W 070°54'0 0.0 270 / 12991.9 11.5 8.5
2020-Jan-14 16:00S 53°06' W 070°54'0 0.0 240 / 8992.5 12.2 8.5
2020-Jan-14 15:00S 53°06' W 070°54'0 0.0 250 / 8992.9 11.4 8.5
2020-Jan-14 14:00S 53°06' W 070°54'0 0.0 260 / 9993.4 10.6 8.5
2020-Jan-14 13:00S 53°06' W 070°54'0 0.0 260 / 8994.0 10.0 8.5
2020-Jan-14 12:00S 53°06' W 070°54'0 0.0 270 / 9994.3 9.1 8.5
2020-Jan-14 11:00S 53°06' W 070°54'0 0.0 260 / 8994.5 8.9 8.5
2020-Jan-14 10:00S 53°06' W 070°54'0 0.0 260 / 4994.4 8.8 8.5
2020-Jan-14 09:00S 53°06' W 070°54'0 0.0 240 / 1994.4 9.0 8.5
2020-Jan-14 08:00S 53°06' W 070°54'0 0.0 240 / 1994.4 8.9 8.5
2020-Jan-14 07:00S 53°06' W 070°54'0 0.0 210 / 3995.0 9.2 8.5
2020-Jan-14 06:00S 53°06' W 070°54'0 0.0 210 / 5995.6 9.4 8.5
2020-Jan-14 05:00S 53°06' W 070°54'0 0.0 210 / 5996.1 9.6 8.5
2020-Jan-14 04:00S 53°06' W 070°54'0 0.0 210 / 7996.5 9.8 8.5
2020-Jan-14 03:00S 53°06' W 070°54'0 0.0 190 / 7996.7 10.5 8.5
2020-Jan-14 02:00S 53°06' W 070°54'0 0.0 140 / 3996.8 10.6 8.5
2020-Jan-14 01:00S 53°06' W 070°54'0 0.0 110 / 1997.0 10.8 8.5
2020-Jan-14 00:00S 53°06' W 070°54'0 0.0 220 / 8997.2 13.6 8.5
2020-Jan-13 23:00S 53°06' W 070°54'0 0.0 270 / 13997.1 16.3 8.5
2020-Jan-13 22:00S 53°06' W 070°54'0 0.0 280 / 14997.2 16.7 8.5
2020-Jan-13 21:00S 53°06' W 070°54'0 0.0 270 / 13997.0 16.9 8.5
2020-Jan-13 20:00S 53°06' W 070°54'0 0.0 270 / 8997.1 16.7 8.5
2020-Jan-13 19:00S 53°06' W 070°54'0 0.0 270 / 10997.4 16.2 8.5
2020-Jan-13 18:00S 53°06' W 070°54'0 0.0 997.1 15.1 8.5
2020-Jan-13 17:00S 53°06' W 070°54'0 0.0 040 / 13997.4 12.7 8.5
2020-Jan-13 16:00S 53°06' W 070°54'0 0.0 030 / 13998.6 12.4 8.5
2020-Jan-13 15:00S 53°06' W 070°54'0 0.0 030 / 11999.7 12.3 8.5
2020-Jan-13 14:00S 53°06' W 070°54'0 0.0 030 / 101000.7 12.5 8.5
2020-Jan-13 13:00S 53°06' W 070°54'0 0.0 030 / 131001.4 12.0 8.5
2020-Jan-13 12:00S 53°06' W 070°54'0 0.0 020 / 51002.2 13.4 8.5
2020-Jan-13 11:00S 53°06' W 070°54'0 0.0 300 / 91002.4 13.6 8.5
2020-Jan-13 10:00S 53°06' W 070°54'0 0.0 290 / 151002.3 13.5 8.5
2020-Jan-13 09:00S 53°06' W 070°54'0 0.0 330 / 111003.0 13.2 8.5
2020-Jan-13 08:00S 53°06' W 070°54'0 0.0 010 / 51004.1 13.2 8.5
2020-Jan-13 07:00S 53°06' W 070°54'0 0.0 320 / 101004.8 13.2 8.5
2020-Jan-13 06:00S 53°06' W 070°54'0 0.0 320 / 81005.2 13.4 8.5
2020-Jan-13 05:00S 53°06' W 070°54'0 0.0 300 / 91005.8 13.8 8.5
2020-Jan-13 04:00S 53°06' W 070°54'0 0.0 330 / 91006.1 13.7 8.5
2020-Jan-13 03:00S 53°06' W 070°54'0 0.0 320 / 91006.0 13.8 8.5
2020-Jan-13 02:00S 53°06' W 070°54'0 0.0 1005.9 14.0 8.5
2020-Jan-13 01:00S 53°06' W 070°54'0 0.0 330 / 101005.7 14.6 8.5
2020-Jan-13 00:00S 53°06' W 070°54'4 3.6 300 / 161005.5 15.2 8.5
2020-Jan-12 23:00S 53°06' W 070°48'0 0.0 290 / 161005.6 15.5 8.5
2020-Jan-12 22:00S 53°06' W 070°48'0 0.0 300 / 141005.6 15.8 8.5
2020-Jan-12 21:00S 53°06' W 070°48'0 0.0 320 / 121005.5 15.5 8.5
2020-Jan-12 20:00S 53°06' W 070°48'0 0.0 320 / 131006.2 15.2 8.5
2020-Jan-12 19:00S 53°06' W 070°48'0 0.0 320 / 131006.7 14.5 8.5
2020-Jan-12 18:00S 53°06' W 070°48'0 0.0 310 / 121007.4 14.0 8.5
2020-Jan-12 17:00S 53°06' W 070°48'0 0.0 280 / 121007.9 13.7 8.5
2020-Jan-12 16:00S 53°06' W 070°48'0 0.0 280 / 161007.9 14.2 8.5
2020-Jan-12 15:00S 53°06' W 070°48'0 0.0 280 / 201007.5 15.2 8.5
2020-Jan-12 14:00S 53°06' W 070°48'0 0.0 280 / 171007.3 15.2 8.5
2020-Jan-12 13:00S 53°06' W 070°48'0 0.0 270 / 111007.4 14.3 8.5
2020-Jan-12 11:00S 53°06' W 070°48'0 0.0 280 / 141007.0 12.5 8.5
2020-Jan-12 10:00S 53°06' W 070°48'0 0.0 270 / 181006.4 12.5 8.5
2020-Jan-12 09:00S 53°06' W 070°48'4 3.6 290 / 101005.5 12.9 8.5
2020-Jan-12 08:00S 53°06' W 070°54'0 0.0 290 / 61005.0 12.9 8.5
2020-Jan-12 07:00S 53°06' W 070°54'0 0.0 280 / 111004.8 12.9 8.5
2020-Jan-12 06:00S 53°06' W 070°54'0 0.0 280 / 141004.5 12.8 8.5
2020-Jan-12 05:00S 53°06' W 070°54'0 0.0 310 / 111004.2 12.5 8.5
2020-Jan-12 04:00S 53°06' W 070°54'0 0.0 330 / 101003.9 12.4 8.5
2020-Jan-12 03:00S 53°06' W 070°54'0 0.0 350 / 71003.7 12.2 8.5
2020-Jan-12 02:00S 53°06' W 070°54'0 0.0 300 / 41003.5 12.4 8.5
2020-Jan-12 01:00S 53°06' W 070°54'0 0.0 300 / 61002.9 13.0 8.5
2020-Jan-12 00:00S 53°06' W 070°54'0 0.0 320 / 111002.7 13.1 8.5
2020-Jan-11 23:00S 53°06' W 070°54'0 0.0 330 / 101003.0 12.8 8.5
2020-Jan-11 22:00S 53°06' W 070°54'0 0.0 350 / 81003.0 12.2 8.5
2020-Jan-11 21:00S 53°06' W 070°54'0 0.0 340 / 71003.7 12.1 8.5
2020-Jan-11 20:00S 53°06' W 070°54'0 0.0 300 / 71004.0 12.3 8.5
2020-Jan-11 19:00S 53°06' W 070°54'0 0.0 290 / 91004.0 13.0 8.5
2020-Jan-11 18:00S 53°06' W 070°54'0 0.0 280 / 141004.1 13.4 8.5
2020-Jan-11 17:00S 53°06' W 070°54'0 0.0 260 / 151004.0 13.2 8.5
2020-Jan-11 16:00S 53°06' W 070°54'0 0.0 270 / 181003.7 13.2 8.5
2020-Jan-11 15:00S 53°06' W 070°54'0 0.0 270 / 171003.3 13.1 8.5
2020-Jan-11 14:00S 53°06' W 070°54'0 0.0 270 / 151003.2 12.6 8.5
2020-Jan-11 13:00S 53°06' W 070°54'0 0.0 280 / 121003.2 11.7 8.5
2020-Jan-11 12:00S 53°06' W 070°54'0 0.0 270 / 101002.9 11.3 8.5
2020-Jan-11 11:00S 53°06' W 070°54'0 0.0 270 / 51002.3 11.6 8.5
2020-Jan-11 10:00S 53°06' W 070°54'0 0.0 300 / 51001.7 10.1 8.5
2020-Jan-11 09:00S 53°06' W 070°54'0 0.0 270 / 71000.8 9.4 8.5
2020-Jan-11 08:00S 53°06' W 070°54'0 0.0 250 / 8999.6 9.8 8.5
2020-Jan-11 07:00S 53°06' W 070°54'0 0.0 250 / 10998.6 10.0 8.5
2020-Jan-11 06:00S 53°06' W 070°54'0 0.0 240 / 11997.9 9.9 8.5
2020-Jan-11 05:00S 53°06' W 070°54'0 0.0 240 / 10997.4 9.8 8.5
2020-Jan-11 04:00S 53°06' W 070°54'0 0.0 260 / 12996.7 10.0 8.5
2020-Jan-11 03:00S 53°06' W 070°54'0 0.0 260 / 8996.1 10.2 8.5
2020-Jan-11 02:00S 53°06' W 070°54'0 0.0 250 / 8995.2 10.4 8.5
2020-Jan-11 01:00S 53°06' W 070°54'0 0.0 260 / 9994.2 10.4 8.5
2020-Jan-11 00:00S 53°06' W 070°54'0 0.0 260 / 9993.5 10.7 8.5
2020-Jan-10 23:00S 53°06' W 070°54'0 0.0 270 / 5992.9 10.5 8.5
2020-Jan-10 22:00S 53°06' W 070°54'0 0.0 250 / 6992.6 10.0 8.5
2020-Jan-10 21:00S 53°06' W 070°54'0 0.0 290 / 13991.8 10.7 8.5
2020-Jan-10 20:00S 53°06' W 070°54'0 0.0 330 / 10991.3 11.0 8.5
2020-Jan-10 19:00S 53°06' W 070°54'0 0.0 350 / 9991.4 10.3 8.5
2020-Jan-10 18:00S 53°06' W 070°54'0 0.0 360 / 8991.9 10.4 8.5
2020-Jan-10 17:00S 53°06' W 070°54'0 0.0 350 / 9992.1 10.5 8.5
2020-Jan-10 16:00S 53°06' W 070°54'0 0.0 340 / 9992.4 11.0 8.5
2020-Jan-10 15:00S 53°06' W 070°54'0 0.0 340 / 9992.7 10.6 8.5
2020-Jan-10 14:00S 53°06' W 070°54'0 0.0 993.2 9.7 8.5
2020-Jan-10 13:00S 53°06' W 070°54'0 0.0 010 / 6993.8 9.3 8.5
2020-Jan-10 12:00S 53°06' W 070°54'0 0.0 030 / 6994.5 8.3 8.5
2020-Jan-10 11:00S 53°06' W 070°54'0 0.0 040 / 7995.2 7.6 8.5
2020-Jan-10 10:00S 53°06' W 070°54'0 0.0 040 / 8995.6 7.7 8.5
2020-Jan-10 09:00S 53°06' W 070°54'0 0.0 030 / 7995.9 7.9 8.5
2020-Jan-10 08:00S 53°06' W 070°54'0 0.0 360 / 3996.3 8.0 8.5
2020-Jan-10 07:00S 53°06' W 070°54'0 0.0 010 / 4996.9 7.1 8.5
2020-Jan-10 06:00S 53°06' W 070°54'0 0.0 340 / 2997.6 7.2 8.5
2020-Jan-10 05:00S 53°06' W 070°54'0 0.0 240 / 5997.9 7.2 8.5
2020-Jan-10 04:00S 53°06' W 070°54'0 0.0 220 / 9998.0 7.4 8.5
2020-Jan-10 03:00S 53°06' W 070°54'0 0.0 240 / 15997.6 7.5 8.5
2020-Jan-10 02:00S 53°06' W 070°54'0 0.0 240 / 11998.2 7.9 8.5
2020-Jan-10 01:00S 53°06' W 070°54'0 0.0 240 / 11997.7 8.3 8.5
2020-Jan-10 00:00S 53°06' W 070°54'0 0.0 250 / 13997.3 8.3 8.5
2020-Jan-09 23:00S 53°06' W 070°54'0 0.0 240 / 11996.8 8.6 8.5
2020-Jan-09 22:00S 53°06' W 070°54'0 0.0 220 / 16996.4 8.1 8.5
2020-Jan-09 21:00S 53°06' W 070°54'0 0.0 230 / 13995.9 7.8 8.5
2020-Jan-09 20:00S 53°06' W 070°54'0 0.0 220 / 15995.6 8.0 8.5
2020-Jan-09 19:00S 53°06' W 070°54'0 0.0 230 / 14994.9 8.1 8.5
2020-Jan-09 18:00S 53°06' W 070°54'0 0.0 230 / 17994.0 8.2 8.5
2020-Jan-09 17:00S 53°06' W 070°54'0 0.0 240 / 19993.3 9.1 8.5
2020-Jan-09 16:00S 53°06' W 070°54'0 0.0 240 / 19992.9 8.9 8.5
2020-Jan-09 15:00S 53°06' W 070°54'0 0.0 250 / 17992.7 8.4 8.5
2020-Jan-09 14:00S 53°06' W 070°54'0 0.0 250 / 16992.1 8.0 8.5
2020-Jan-09 13:00S 53°06' W 070°54'0 0.0 250 / 14992.0 7.4 8.5
2020-Jan-09 12:00S 53°06' W 070°54'0 0.0 240 / 14991.6 7.3 8.5
2020-Jan-09 11:00S 53°06' W 070°54'0 0.0 250 / 13991.3 7.0 8.5
2020-Jan-09 10:00S 53°06' W 070°54'0 0.0 260 / 14990.8 6.9 8.5
2020-Jan-09 09:00S 53°06' W 070°54'0 0.0 260 / 17989.8 6.9 8.5
2020-Jan-09 08:00S 53°06' W 070°54'0 0.0 260 / 21988.6 7.1 8.5
2020-Jan-09 07:00S 53°06' W 070°54'0 0.0 260 / 19988.3 7.1 8.5
2020-Jan-09 06:00S 53°06' W 070°54'0 0.0 260 / 16988.3 7.0 8.5
2020-Jan-09 05:00S 53°06' W 070°54'0 0.0 260 / 10988.5 7.1 8.5
2020-Jan-09 04:00S 53°06' W 070°54'0 0.0 250 / 7988.2 7.3 8.5
2020-Jan-09 03:00S 53°06' W 070°54'0 0.0 260 / 12987.6 7.7 8.5
2020-Jan-09 02:00S 53°06' W 070°54'0 0.0 240 / 11986.9 8.5 8.5
2020-Jan-09 01:00S 53°06' W 070°54'   240 / 11986.1 9.8 8.5

Dump ship's entire track history